createdAt,value
2018-11-05T00:00:55.201Z,18.25
2018-11-05T00:03:24.266Z,17.48
2018-11-05T00:05:53.421Z,20.60
2018-11-05T00:08:22.594Z,18.85
2018-11-05T00:10:52.616Z,19.48
2018-11-05T00:13:21.725Z,17.95
2018-11-05T00:15:51.198Z,22.75
2018-11-05T00:18:20.197Z,21.48
2018-11-05T00:20:49.365Z,19.75
2018-11-05T00:23:18.637Z,18.92
2018-11-05T00:25:47.821Z,17.40
2018-11-05T00:28:17.006Z,17.60
2018-11-05T00:30:46.111Z,19.90
2018-11-05T00:33:15.606Z,16.93
2018-11-05T00:35:45.157Z,16.57
2018-11-05T00:38:14.466Z,14.45
2018-11-05T00:40:43.735Z,16.95
2018-11-05T00:43:12.791Z,14.50
2018-11-05T00:45:41.992Z,20.62
2018-11-05T00:48:11.263Z,15.45
2018-11-05T00:50:40.417Z,16.75
2018-11-05T00:53:09.495Z,16.82
2018-11-05T00:55:38.878Z,15.45
2018-11-05T00:58:08.036Z,17.12
2018-11-05T01:00:37.404Z,16.70
2018-11-05T01:03:06.637Z,18.27
2018-11-05T01:05:35.951Z,14.70
2018-11-05T01:08:05.104Z,15.45
2018-11-05T01:10:34.251Z,15.83
2018-11-05T01:13:03.582Z,15.25
2018-11-05T01:15:32.687Z,17.98
2018-11-05T01:18:01.808Z,17.20
2018-11-05T01:20:31.001Z,15.43
2018-11-05T01:23:00.643Z,15.90
2018-11-05T01:25:29.783Z,14.78
2018-11-05T01:27:58.925Z,18.98
2018-11-05T01:30:28.001Z,16.20
2018-11-05T01:32:57.919Z,14.03
2018-11-05T01:35:27.109Z,13.18
2018-11-05T01:37:56.166Z,14.68
2018-11-05T01:40:25.272Z,13.43
2018-11-05T01:42:54.758Z,15.00
2018-11-05T01:45:23.914Z,15.80
2018-11-05T01:47:53.118Z,18.20
2018-11-05T01:50:22.285Z,15.50
2018-11-05T01:52:51.429Z,14.28
2018-11-05T01:55:20.594Z,13.98
2018-11-05T01:57:49.849Z,12.28
2018-11-05T02:00:19.103Z,12.45
2018-11-05T02:02:48.269Z,11.50
2018-11-05T02:05:17.994Z,13.65
2018-11-05T02:07:47.405Z,15.93
2018-11-05T02:10:17.769Z,12.80
2018-11-05T02:12:46.993Z,13.95
2018-11-05T02:15:16.101Z,14.45
2018-11-05T02:17:46.326Z,13.15
2018-11-05T02:20:16.463Z,11.97
2018-11-05T02:22:45.637Z,14.63
2018-11-05T02:25:15.136Z,12.73
2018-11-05T02:27:44.394Z,11.63
2018-11-05T02:30:17.162Z,13.80
2018-11-05T02:32:46.591Z,12.60
2018-11-05T02:35:16.581Z,13.55
2018-11-05T02:37:46.560Z,11.90
2018-11-05T02:40:17.375Z,11.60
2018-11-05T02:42:47.037Z,12.70
2018-11-05T02:45:17.866Z,12.47
2018-11-05T02:47:46.952Z,14.83
2018-11-05T02:50:16.647Z,12.75
2018-11-05T02:52:46.684Z,12.35
2018-11-05T02:55:15.796Z,11.00
2018-11-05T02:57:45.009Z,10.93
2018-11-05T03:00:15.785Z,12.05
2018-11-05T03:02:44.950Z,12.65
2018-11-05T03:05:16.010Z,10.48
2018-11-05T03:07:45.843Z,13.60
2018-11-05T03:10:15.035Z,12.03
2018-11-05T03:12:44.941Z,12.50
2018-11-05T03:15:15.197Z,12.75
2018-11-05T03:17:44.327Z,14.75
2018-11-05T03:20:14.309Z,12.78
2018-11-05T03:22:43.913Z,10.58
2018-11-05T03:25:13.066Z,14.03
2018-11-05T03:27:42.500Z,10.18
2018-11-05T03:30:14.491Z,11.88
2018-11-05T03:32:43.653Z,11.57
2018-11-05T03:35:13.493Z,12.90
2018-11-05T03:37:43.595Z,12.85
2018-11-05T03:40:13.311Z,10.75
2018-11-05T03:42:43.225Z,12.78
2018-11-05T03:45:16.305Z,12.63
2018-11-05T03:47:45.843Z,12.37
2018-11-05T03:50:17.182Z,15.23
2018-11-05T03:52:46.937Z,11.60
2018-11-05T03:55:17.212Z,11.78
2018-11-05T03:57:46.376Z,11.55
2018-11-05T04:00:17.509Z,10.55
2018-11-05T04:02:46.620Z,12.25
2018-11-05T04:05:15.759Z,11.33
2018-11-05T04:07:44.948Z,13.32
2018-11-05T04:10:14.724Z,13.18
2018-11-05T04:12:43.891Z,14.65
2018-11-05T04:15:13.223Z,11.03
2018-11-05T04:17:42.278Z,13.85
2018-11-05T04:20:13.362Z,13.45
2018-11-05T04:22:43.333Z,11.38
2018-11-05T04:25:12.569Z,14.50
2018-11-05T04:27:41.778Z,11.35
2018-11-05T04:30:13.173Z,15.10
2018-11-05T04:32:42.494Z,14.78
2018-11-05T04:35:12.175Z,11.48
2018-11-05T04:37:41.352Z,14.98
2018-11-05T04:40:11.512Z,13.22
2018-11-05T04:42:41.156Z,15.68
2018-11-05T04:45:11.840Z,14.07
2018-11-05T04:47:41.565Z,13.58
2018-11-05T04:50:11.881Z,13.75
2018-11-05T04:52:41.789Z,15.58
2018-11-05T04:55:11.079Z,18.90
2018-11-05T04:57:40.317Z,15.48
2018-11-05T05:00:13.282Z,14.20
2018-11-05T05:02:42.939Z,13.80
2018-11-05T05:05:13.171Z,14.78
2018-11-05T05:07:42.263Z,15.25
2018-11-05T05:10:11.571Z,15.38
2018-11-05T05:12:41.768Z,14.23
2018-11-05T05:15:11.463Z,21.20
2018-11-05T05:17:40.951Z,13.68
2018-11-05T05:20:12.338Z,12.88
2018-11-05T05:22:42.013Z,15.48
2018-11-05T05:25:11.047Z,14.85
2018-11-05T05:27:40.426Z,14.58
2018-11-05T05:30:11.801Z,12.03
2018-11-05T05:32:40.891Z,13.75
2018-11-05T05:35:10.073Z,13.03
2018-11-05T05:37:39.362Z,13.43
2018-11-05T05:40:08.962Z,13.00
2018-11-05T05:42:38.774Z,11.78
2018-11-05T05:45:08.689Z,13.50
2018-11-05T05:47:37.822Z,13.43
2018-11-05T05:50:10.242Z,12.65
2018-11-05T05:52:39.585Z,14.70
2018-11-05T05:55:09.066Z,15.00
2018-11-05T05:57:38.130Z,13.48
2018-11-05T06:00:09.451Z,14.38
2018-11-05T06:02:38.833Z,12.00
2018-11-05T06:05:08.929Z,15.83
2018-11-05T06:07:38.418Z,14.90
2018-11-05T06:10:07.765Z,13.78
2018-11-05T06:12:37.004Z,16.70
2018-11-05T06:15:06.998Z,13.03
2018-11-05T06:17:36.106Z,12.35
2018-11-05T06:20:06.119Z,12.18
2018-11-05T06:22:35.252Z,13.80
2018-11-05T06:25:04.464Z,14.10
2018-11-05T06:27:33.620Z,14.55
2018-11-05T06:30:02.758Z,13.28
2018-11-05T06:32:31.965Z,11.88
2018-11-05T06:35:01.151Z,14.85
2018-11-05T06:37:30.330Z,12.93
2018-11-05T06:39:59.445Z,12.58
2018-11-05T06:42:28.745Z,11.85
2018-11-05T06:44:57.975Z,12.30
2018-11-05T06:47:27.235Z,12.58
2018-11-05T06:49:56.283Z,17.37
2018-11-05T06:52:25.410Z,13.28
2018-11-05T06:54:54.534Z,11.25
2018-11-05T06:57:23.698Z,12.13
2018-11-05T06:59:52.925Z,11.80
2018-11-05T07:02:22.359Z,12.20
2018-11-05T07:04:51.635Z,12.95
2018-11-05T07:07:20.838Z,13.85
2018-11-05T07:09:50.079Z,12.43
2018-11-05T07:12:19.129Z,14.13
2018-11-05T07:14:48.423Z,12.82
2018-11-05T07:17:17.685Z,14.07
2018-11-05T07:19:46.921Z,12.58
2018-11-05T07:22:16.015Z,14.75
2018-11-05T07:24:45.047Z,13.72
2018-11-05T07:27:14.121Z,14.43
2018-11-05T07:29:43.301Z,12.75
2018-11-05T07:32:12.395Z,16.15
2018-11-05T07:34:41.480Z,17.23
2018-11-05T07:37:10.638Z,19.02
2018-11-05T07:39:39.611Z,14.53
2018-11-05T07:42:08.781Z,17.20
2018-11-05T07:44:37.902Z,18.77
2018-11-05T07:47:07.137Z,22.98
2018-11-05T07:49:36.380Z,22.37
2018-11-05T07:52:05.454Z,16.20
2018-11-05T07:54:34.565Z,15.58
2018-11-05T07:57:03.774Z,18.62
2018-11-05T07:59:32.881Z,22.73
2018-11-05T08:02:02.022Z,17.42
2018-11-05T08:04:31.120Z,20.68
2018-11-05T08:07:00.243Z,17.85
2018-11-05T08:09:29.722Z,15.80
2018-11-05T08:11:58.847Z,17.27
2018-11-05T08:14:28.184Z,17.92
2018-11-05T08:16:57.343Z,18.45
2018-11-05T08:19:26.448Z,18.00
2018-11-05T08:21:55.523Z,17.25
2018-11-05T08:24:24.953Z,21.15
2018-11-05T08:26:54.746Z,19.57
2018-11-05T08:29:24.223Z,20.65
2018-11-05T08:31:53.465Z,21.25
2018-11-05T08:34:22.569Z,17.07
2018-11-05T08:36:51.704Z,15.45
2018-11-05T08:39:21.246Z,18.73
2018-11-05T08:41:50.372Z,15.48
2018-11-05T08:44:19.435Z,16.90
2018-11-05T08:46:48.641Z,14.30
2018-11-05T08:49:17.643Z,16.32
2018-11-05T08:51:47.005Z,17.82
2018-11-05T08:54:15.844Z,23.60
2018-11-05T08:56:45.039Z,20.27
2018-11-05T08:59:14.143Z,24.40
2018-11-05T09:01:43.246Z,20.95
2018-11-05T09:04:12.971Z,18.07
2018-11-05T09:06:42.172Z,27.07
2018-11-05T09:09:11.688Z,21.02
2018-11-05T09:11:40.926Z,19.07
2018-11-05T09:14:10.065Z,20.08
2018-11-05T09:16:39.222Z,20.88
2018-11-05T09:19:08.344Z,20.15
2018-11-05T09:21:37.443Z,23.30
2018-11-05T09:24:06.792Z,22.70
2018-11-05T09:26:36.040Z,27.67
2018-11-05T09:29:05.133Z,27.98
2018-11-05T09:31:34.250Z,37.35
2018-11-05T09:34:03.454Z,25.20
2018-11-05T09:36:32.665Z,25.95
2018-11-05T09:39:01.959Z,26.90
2018-11-05T09:41:31.250Z,20.30
2018-11-05T09:44:00.315Z,28.20
2018-11-05T09:46:29.445Z,16.90
2018-11-05T09:48:58.601Z,19.37
2018-11-05T09:51:27.755Z,25.55
2018-11-05T09:53:56.910Z,22.07
2018-11-05T09:56:26.025Z,18.50
2018-11-05T09:58:55.101Z,20.48
2018-11-05T10:01:24.190Z,21.62
2018-11-05T10:03:57.091Z,21.62
2018-11-05T10:06:27.050Z,20.70
2018-11-05T10:08:56.179Z,20.80
2018-11-05T10:11:25.267Z,15.18
2018-11-05T10:13:54.369Z,18.32
2018-11-05T10:16:23.628Z,20.92
2018-11-05T10:18:53.075Z,20.55
2018-11-05T10:21:22.247Z,20.72
2018-11-05T10:23:51.284Z,19.70
2018-11-05T10:26:20.338Z,23.95
2018-11-05T10:28:49.447Z,21.68
2018-11-05T10:31:24.520Z,22.70
2018-11-05T10:33:53.703Z,15.15
2018-11-05T10:36:23.285Z,20.62
2018-11-05T10:38:52.454Z,14.28
2018-11-05T10:41:21.653Z,22.93
2018-11-05T10:43:50.746Z,14.83
2018-11-05T10:46:20.074Z,16.52
2018-11-05T10:48:49.163Z,20.43
2018-11-05T10:51:18.416Z,18.20
2018-11-05T10:53:47.478Z,15.78
2018-11-05T10:56:16.815Z,14.85
2018-11-05T10:58:46.076Z,18.73
2018-11-05T11:01:16.378Z,15.95
2018-11-05T11:03:50.529Z,15.80
2018-11-05T11:06:19.755Z,23.52
2018-11-05T11:08:48.905Z,25.17
2018-11-05T11:11:18.019Z,25.32
2018-11-05T11:13:47.143Z,17.48
2018-11-05T11:16:16.317Z,18.15
2018-11-05T11:18:45.740Z,19.60
2018-11-05T11:21:14.994Z,21.93
2018-11-05T11:23:44.860Z,17.70
2018-11-05T11:26:13.977Z,24.02
2018-11-05T11:28:43.405Z,15.03
2018-11-05T11:31:12.634Z,14.73
2018-11-05T11:33:41.890Z,13.98
2018-11-05T11:36:10.987Z,17.90
2018-11-05T11:38:40.173Z,18.15
2018-11-05T11:41:09.651Z,16.32
2018-11-05T11:43:39.052Z,20.20
2018-11-05T11:46:08.248Z,17.23
2018-11-05T11:48:37.533Z,18.73
2018-11-05T11:51:06.785Z,16.77
2018-11-05T11:53:36.264Z,27.30
2018-11-05T11:56:05.498Z,17.82
2018-11-05T11:58:34.866Z,19.17
2018-11-05T12:01:03.962Z,17.80
2018-11-05T12:03:33.050Z,18.75
2018-11-05T12:06:03.308Z,17.90
2018-11-05T12:08:33.458Z,17.62
2018-11-05T12:11:02.833Z,18.52
2018-11-05T12:13:31.893Z,19.95
2018-11-05T12:16:01.327Z,18.65
2018-11-05T12:18:30.623Z,14.43
2018-11-05T12:20:59.726Z,18.15
2018-11-05T12:23:28.972Z,20.65
2018-11-05T12:25:58.091Z,18.17
2018-11-05T12:28:27.276Z,17.65
2018-11-05T12:30:56.515Z,13.83
2018-11-05T12:33:25.631Z,16.52
2018-11-05T12:35:54.831Z,14.28
2018-11-05T12:38:23.922Z,15.50
2018-11-05T12:40:53.003Z,20.97
2018-11-05T12:43:22.275Z,18.23
2018-11-05T12:45:51.387Z,19.40
2018-11-05T12:48:20.605Z,23.22
2018-11-05T12:50:49.840Z,25.77
2018-11-05T12:53:19.026Z,21.60
2018-11-05T12:55:48.295Z,22.82
2018-11-05T12:58:17.385Z,23.22
2018-11-05T13:00:47.038Z,24.80
2018-11-05T13:03:16.195Z,25.37
2018-11-05T13:05:45.457Z,22.62
2018-11-05T13:08:14.692Z,27.22
2018-11-05T13:10:43.972Z,26.57
2018-11-05T13:13:13.225Z,22.95
2018-11-05T13:15:42.406Z,27.30
2018-11-05T13:18:11.481Z,28.20
2018-11-05T13:20:40.569Z,30.77
2018-11-05T13:23:09.851Z,30.17
2018-11-05T13:25:39.455Z,27.13
2018-11-05T13:28:08.629Z,27.62
2018-11-05T13:30:37.807Z,29.95
2018-11-05T13:33:07.274Z,23.92
2018-11-05T13:35:36.402Z,24.63
2018-11-05T13:38:05.847Z,30.08
2018-11-05T13:40:34.723Z,22.87
2018-11-05T13:43:03.807Z,23.65
2018-11-05T13:45:33.215Z,23.10
2018-11-05T13:48:02.444Z,21.65
2018-11-05T13:50:32.789Z,24.30
2018-11-05T13:53:01.928Z,20.43
2018-11-05T13:55:31.291Z,24.77
2018-11-05T13:58:00.444Z,21.65
2018-11-05T14:00:29.540Z,21.00
2018-11-05T14:02:58.520Z,21.87
2018-11-05T14:05:27.818Z,20.62
2018-11-05T14:07:56.959Z,20.52
2018-11-05T14:10:25.994Z,22.82
2018-11-05T14:12:55.081Z,21.17
2018-11-05T14:15:24.233Z,27.42
2018-11-05T14:17:53.302Z,24.87
2018-11-05T14:20:22.309Z,18.87
2018-11-05T14:22:51.402Z,18.20
2018-11-05T14:25:21.173Z,18.90
2018-11-05T14:27:51.771Z,18.67
2018-11-05T14:30:20.792Z,16.87
2018-11-05T14:32:51.219Z,18.52
2018-11-05T14:35:20.251Z,20.82
2018-11-05T14:37:49.890Z,18.40
2018-11-05T14:40:19.590Z,20.43
2018-11-05T14:42:49.012Z,16.02
2018-11-05T14:45:19.344Z,16.70
2018-11-05T14:47:48.791Z,16.80
2018-11-05T14:50:19.344Z,20.57
2018-11-05T14:52:48.836Z,18.80
2018-11-05T14:55:19.149Z,14.78
2018-11-05T14:57:49.565Z,19.67
2018-11-05T15:00:20.562Z,17.25
2018-11-05T15:02:50.518Z,15.48
2018-11-05T15:05:19.439Z,15.58
2018-11-05T15:07:49.355Z,16.67
2018-11-05T15:10:20.981Z,16.62
2018-11-05T15:12:50.283Z,16.77
2018-11-05T15:15:20.230Z,16.17
2018-11-05T15:17:49.539Z,16.20
2018-11-05T15:20:20.140Z,15.45
2018-11-05T15:22:49.149Z,13.48
2018-11-05T15:25:18.593Z,17.42
2018-11-05T15:27:47.840Z,17.40
2018-11-05T15:30:18.939Z,17.52
2018-11-05T15:32:48.075Z,17.52
2018-11-05T15:35:16.991Z,19.87
2018-11-05T15:37:46.274Z,18.12
2018-11-05T15:40:17.362Z,20.95
2018-11-05T15:42:46.716Z,18.67
2018-11-05T15:45:17.403Z,19.77
2018-11-05T15:47:46.793Z,18.87
2018-11-05T15:50:17.189Z,18.77
2018-11-05T15:52:46.493Z,15.95
2018-11-05T15:55:16.237Z,32.30
2018-11-05T15:57:45.312Z,17.87
2018-11-05T16:00:20.387Z,16.40
2018-11-05T16:02:52.917Z,20.57
2018-11-05T16:05:22.140Z,17.30
2018-11-05T16:07:51.548Z,22.73
2018-11-05T16:10:21.319Z,27.30
2018-11-05T16:12:50.408Z,25.37
2018-11-05T16:15:19.553Z,27.45
2018-11-05T16:17:48.994Z,27.60
2018-11-05T16:20:19.969Z,30.08
2018-11-05T16:22:50.115Z,26.60
2018-11-05T16:25:19.326Z,30.48
2018-11-05T16:27:48.448Z,29.50
2018-11-05T16:30:19.873Z,29.92
2018-11-05T16:32:49.946Z,33.18
2018-11-05T16:35:19.403Z,33.20
2018-11-05T16:37:48.599Z,40.80
2018-11-05T16:40:18.705Z,31.48
2018-11-05T16:42:48.805Z,34.65
2018-11-05T16:45:17.913Z,31.25
2018-11-05T16:47:47.247Z,33.02
2018-11-05T16:50:20.167Z,35.28
2018-11-05T16:52:49.309Z,33.78
2018-11-05T16:55:18.576Z,37.00
2018-11-05T16:57:47.764Z,36.85
2018-11-05T17:00:17.313Z,39.50
2018-11-05T17:02:47.353Z,35.25
2018-11-05T17:05:16.240Z,40.50
2018-11-05T17:07:45.443Z,42.20
2018-11-05T17:10:15.422Z,49.70
2018-11-05T17:12:45.137Z,47.80
2018-11-05T17:15:15.433Z,46.65
2018-11-05T17:17:45.164Z,53.60
2018-11-05T17:20:15.787Z,53.55
2018-11-05T17:22:45.147Z,56.70
2018-11-05T17:25:15.047Z,68.62
2018-11-05T17:27:45.297Z,75.97
2018-11-05T17:30:18.450Z,72.65
2018-11-05T17:32:47.554Z,70.30
2018-11-05T17:35:17.126Z,76.92
2018-11-05T17:37:47.263Z,64.70
2018-11-05T17:40:17.628Z,70.03
2018-11-05T17:42:46.859Z,72.90
2018-11-05T17:45:17.403Z,71.97
2018-11-05T17:47:46.896Z,67.58
2018-11-05T17:50:17.429Z,74.45
2018-11-05T17:53:01.241Z,69.37
2018-11-05T17:55:30.392Z,69.47
2018-11-05T17:58:00.528Z,69.05
2018-11-05T18:00:29.863Z,67.67
2018-11-05T18:02:59.958Z,65.67
2018-11-05T18:05:29.339Z,67.42
2018-11-05T18:07:59.074Z,68.17
2018-11-05T18:10:28.411Z,65.42
2018-11-05T18:12:57.705Z,69.97
2018-11-05T18:15:27.508Z,69.45
2018-11-05T18:17:56.918Z,74.95
2018-11-05T18:20:26.106Z,69.87
2018-11-05T18:22:55.417Z,66.72
2018-11-05T18:25:25.043Z,69.37
2018-11-05T18:27:54.398Z,69.70
2018-11-05T18:30:23.708Z,67.78
2018-11-05T18:32:52.939Z,69.00
2018-11-05T18:35:22.079Z,66.75
2018-11-05T18:37:52.645Z,66.37
2018-11-05T18:40:21.826Z,65.60
2018-11-05T18:42:51.325Z,71.07
2018-11-05T18:45:20.254Z,66.45
2018-11-05T18:47:49.490Z,62.75
2018-11-05T18:50:18.767Z,64.67
2018-11-05T18:52:47.998Z,66.25
2018-11-05T18:55:18.043Z,63.78
2018-11-05T18:57:47.459Z,63.05
2018-11-05T19:00:20.731Z,60.10
2018-11-05T19:02:50.858Z,61.20
2018-11-05T19:05:20.513Z,61.88
2018-11-05T19:07:50.873Z,61.00
2018-11-05T19:10:20.113Z,58.83
2018-11-05T19:12:49.875Z,59.95
2018-11-05T19:15:19.329Z,61.15
2018-11-05T19:17:49.855Z,58.78
2018-11-05T19:20:20.013Z,58.35
2018-11-05T19:22:49.124Z,58.92
2018-11-05T19:25:18.732Z,58.35
2018-11-05T19:27:47.946Z,61.00
2018-11-05T19:30:20.463Z,59.13
2018-11-05T19:32:49.931Z,59.70
2018-11-05T19:35:20.160Z,58.87
2018-11-05T19:37:49.433Z,57.85
2018-11-05T19:40:19.169Z,57.90
2018-11-05T19:42:48.862Z,57.08
2018-11-05T19:45:19.089Z,58.05
2018-11-05T19:47:48.425Z,60.60
2018-11-05T19:50:20.225Z,58.50
2018-11-05T19:52:50.236Z,58.38
2018-11-05T19:55:19.960Z,55.85
2018-11-05T19:57:49.740Z,58.78
2018-11-05T20:00:21.569Z,58.95
2018-11-05T20:02:51.101Z,53.80
2018-11-05T20:05:20.534Z,62.03
2018-11-05T20:07:50.567Z,54.80
2018-11-05T20:10:19.906Z,53.98
2018-11-05T20:12:49.211Z,57.15
2018-11-05T20:15:18.650Z,53.55
2018-11-05T20:17:48.697Z,53.15
2018-11-05T20:20:19.325Z,51.02
2018-11-05T20:22:48.681Z,52.60
2018-11-05T20:25:17.855Z,50.70
2018-11-05T20:27:47.242Z,52.98
2018-11-05T20:30:19.412Z,53.78
2018-11-05T20:32:49.557Z,52.78
2018-11-05T20:35:18.933Z,49.03
2018-11-05T20:37:48.186Z,49.98
2018-11-05T20:40:18.551Z,51.37
2018-11-05T20:42:48.785Z,51.02
2018-11-05T20:45:18.477Z,50.58
2018-11-05T20:47:47.650Z,48.87
2018-11-05T20:50:17.688Z,50.38
2018-11-05T20:52:46.920Z,47.33
2018-11-05T20:55:17.039Z,52.67
2018-11-05T20:57:46.209Z,47.53
2018-11-05T21:00:16.612Z,49.98
2018-11-05T21:02:45.789Z,52.60
2018-11-05T21:05:15.157Z,44.10
2018-11-05T21:07:44.662Z,42.67
2018-11-05T21:10:14.665Z,42.05
2018-11-05T21:12:44.326Z,43.87
2018-11-05T21:15:16.733Z,47.55
2018-11-05T21:17:46.884Z,49.42
2018-11-05T21:20:16.240Z,45.17
2018-11-05T21:22:46.025Z,43.83
2018-11-05T21:25:14.920Z,42.65
2018-11-05T21:27:44.515Z,40.63
2018-11-05T21:30:15.570Z,40.50
2018-11-05T21:32:44.424Z,45.65
2018-11-05T21:35:14.775Z,43.00
2018-11-05T21:37:43.701Z,39.67
2018-11-05T21:40:13.953Z,40.48
2018-11-05T21:42:42.802Z,41.23
2018-11-05T21:45:13.057Z,43.78
2018-11-05T21:47:42.714Z,38.65
2018-11-05T21:50:13.440Z,41.85
2018-11-05T21:52:43.227Z,36.13
2018-11-05T21:55:12.376Z,39.30
2018-11-05T21:57:42.750Z,41.45
2018-11-05T22:00:14.617Z,41.25
2018-11-05T22:02:48.636Z,39.00
2018-11-05T22:05:17.746Z,39.80
2018-11-05T22:07:47.533Z,39.15
2018-11-05T22:10:16.689Z,40.17
2018-11-05T22:12:46.314Z,36.50
2018-11-05T22:15:15.458Z,37.50
2018-11-05T22:17:44.574Z,39.70
2018-11-05T22:20:14.625Z,37.30
2018-11-05T22:22:44.514Z,36.68
2018-11-05T22:25:13.590Z,36.73
2018-11-05T22:27:43.116Z,36.93
2018-11-05T22:30:12.978Z,37.25
2018-11-05T22:32:42.263Z,44.42
2018-11-05T22:35:11.484Z,36.20
2018-11-05T22:37:40.599Z,38.23
2018-11-05T22:40:11.818Z,34.65
2018-11-05T22:42:40.971Z,33.55
2018-11-05T22:45:11.384Z,36.33
2018-11-05T22:47:40.611Z,31.50
2018-11-05T22:50:10.039Z,34.95
2018-11-05T22:52:39.901Z,34.83
2018-11-05T22:55:09.290Z,35.55
2018-11-05T22:57:38.453Z,32.15
2018-11-05T23:01:16.839Z,32.30
2018-11-05T23:03:46.445Z,36.10
2018-11-05T23:06:15.663Z,33.55
2018-11-05T23:08:44.725Z,33.95
2018-11-05T23:11:14.601Z,34.23
2018-11-05T23:13:43.772Z,33.83
2018-11-05T23:16:12.846Z,34.05
2018-11-05T23:18:42.407Z,30.70
2018-11-05T23:21:11.649Z,33.50
2018-11-05T23:23:40.755Z,31.60
2018-11-05T23:26:09.861Z,32.95
2018-11-05T23:28:39.045Z,33.33
2018-11-05T23:31:08.166Z,31.62
2018-11-05T23:33:37.243Z,33.80
2018-11-05T23:36:06.617Z,32.67
2018-11-05T23:38:35.883Z,30.08
2018-11-05T23:41:05.254Z,28.35
2018-11-05T23:43:34.412Z,31.55
2018-11-05T23:46:03.518Z,29.87
2018-11-05T23:48:32.664Z,31.07
2018-11-05T23:51:01.873Z,26.65
2018-11-05T23:53:31.038Z,26.40
2018-11-05T23:56:00.223Z,29.05
2018-11-05T23:58:29.443Z,27.48
